createdAt,value
2022-07-29T00:02:01.696Z,92.00
2022-07-29T00:04:29.541Z,92.00
2022-07-29T00:06:58.673Z,92.30
2022-07-29T00:09:26.600Z,92.30
2022-07-29T00:11:55.550Z,92.00
2022-07-29T00:14:23.327Z,92.10
2022-07-29T00:16:51.109Z,92.30
2022-07-29T00:19:19.009Z,92.20
2022-07-29T00:21:46.748Z,92.20
2022-07-29T00:24:16.144Z,92.40
2022-07-29T00:26:44.180Z,92.30
2022-07-29T00:29:33.457Z,92.30
2022-07-29T00:31:59.697Z,92.30
2022-07-29T00:34:45.267Z,92.30
2022-07-29T00:37:13.149Z,92.20
2022-07-29T00:39:42.473Z,92.20
2022-07-29T00:42:10.918Z,92.20
2022-07-29T00:44:40.093Z,92.30
2022-07-29T00:47:08.649Z,92.40
2022-07-29T00:49:37.599Z,92.50
2022-07-29T00:52:06.526Z,92.60
2022-07-29T00:54:35.275Z,92.70
2022-07-29T00:57:09.058Z,92.60
2022-07-29T00:59:37.008Z,92.60
2022-07-29T01:02:05.267Z,92.60
2022-07-29T01:04:33.724Z,92.60
2022-07-29T01:07:03.416Z,92.70
2022-07-29T01:09:42.775Z,92.90
2022-07-29T01:12:17.210Z,93.00
2022-07-29T01:14:46.254Z,92.90
2022-07-29T01:17:19.818Z,92.90
2022-07-29T01:19:54.876Z,93.00
2022-07-29T01:22:44.552Z,93.10
2022-07-29T01:25:21.928Z,93.10
2022-07-29T01:28:10.168Z,93.10
2022-07-29T01:30:44.188Z,93.40
2022-07-29T01:33:38.879Z,93.30
2022-07-29T01:36:12.689Z,93.10
2022-07-29T01:38:43.252Z,93.30
2022-07-29T01:41:14.778Z,93.30
2022-07-29T01:43:46.467Z,93.60
2022-07-29T01:46:19.942Z,93.70
2022-07-29T01:48:50.862Z,93.80
2022-07-29T01:51:22.178Z,93.80
2022-07-29T01:53:56.263Z,93.90
2022-07-29T01:56:26.109Z,94.00
2022-07-29T01:58:55.232Z,94.10
2022-07-29T02:01:27.555Z,94.30
2022-07-29T02:03:56.241Z,94.30
2022-07-29T02:06:25.255Z,94.40
2022-07-29T02:08:54.816Z,94.50
2022-07-29T02:11:22.739Z,94.50
2022-07-29T02:13:52.448Z,94.60
2022-07-29T02:16:22.948Z,94.50
2022-07-29T02:18:55.639Z,94.60
2022-07-29T02:21:26.942Z,94.90
2022-07-29T02:23:56.505Z,94.90
2022-07-29T02:26:26.425Z,95.00
2022-07-29T02:28:57.004Z,94.90
2022-07-29T02:31:27.217Z,95.10
2022-07-29T02:33:57.902Z,94.90
2022-07-29T02:36:26.691Z,95.00
2022-07-29T02:38:58.787Z,95.20
2022-07-29T02:41:32.977Z,95.40
2022-07-29T02:44:11.125Z,95.50
2022-07-29T02:46:43.770Z,95.20
2022-07-29T02:49:20.286Z,95.10
2022-07-29T02:51:53.206Z,95.30
2022-07-29T02:54:28.037Z,95.30
2022-07-29T02:56:57.670Z,95.50
2022-07-29T02:59:28.347Z,95.60
2022-07-29T03:01:59.643Z,95.50
2022-07-29T03:04:30.636Z,95.70
2022-07-29T03:07:01.553Z,95.70
2022-07-29T03:09:30.587Z,95.50
2022-07-29T03:11:59.506Z,95.70
2022-07-29T03:14:28.309Z,95.80
2022-07-29T03:16:56.495Z,96.00
2022-07-29T03:19:24.431Z,96.40
2022-07-29T03:21:53.789Z,96.40
2022-07-29T03:24:32.449Z,96.50
2022-07-29T03:27:00.901Z,96.70
2022-07-29T03:29:33.575Z,96.70
2022-07-29T03:32:03.702Z,97.10
2022-07-29T03:34:35.235Z,97.20
2022-07-29T03:37:04.457Z,97.10
2022-07-29T03:39:37.133Z,97.50
2022-07-29T03:42:08.771Z,97.50
2022-07-29T03:44:37.674Z,97.70
2022-07-29T03:47:08.426Z,97.60
2022-07-29T03:49:39.616Z,98.10
2022-07-29T03:52:09.520Z,98.40
2022-07-29T03:54:37.423Z,98.20
2022-07-29T03:57:07.328Z,98.20
2022-07-29T03:59:35.793Z,98.30
2022-07-29T04:02:05.274Z,98.00
2022-07-29T04:04:35.133Z,98.10
2022-07-29T04:07:03.256Z,98.60
2022-07-29T04:09:32.848Z,98.80
2022-07-29T04:12:03.339Z,98.90
2022-07-29T04:14:32.737Z,99.20
2022-07-29T04:17:00.607Z,99.30
2022-07-29T04:19:28.446Z,99.20
2022-07-29T04:21:56.245Z,99.50
2022-07-29T04:24:23.984Z,99.50
2022-07-29T04:26:53.294Z,99.50
2022-07-29T04:29:21.500Z,99.40
2022-07-29T04:31:49.341Z,99.00
2022-07-29T04:34:17.388Z,98.60
2022-07-29T04:36:45.418Z,98.40
2022-07-29T04:39:13.289Z,98.30
2022-07-29T04:41:41.080Z,97.70
2022-07-29T04:44:12.139Z,98.30
2022-07-29T04:46:40.850Z,98.60
2022-07-29T04:49:08.838Z,99.50
2022-07-29T04:51:36.742Z,99.80
2022-07-29T04:54:04.646Z,99.40
2022-07-29T04:56:32.419Z,99.10
2022-07-29T04:59:00.163Z,99.20
2022-07-29T05:01:29.382Z,99.10
2022-07-29T05:04:00.329Z,99.40
2022-07-29T05:06:28.692Z,99.00
2022-07-29T05:08:56.408Z,99.70
2022-07-29T05:11:28.639Z,99.60
2022-07-29T05:13:58.199Z,98.80
2022-07-29T05:16:26.201Z,99.30
2022-07-29T05:18:55.322Z,99.40
2022-07-29T05:21:23.063Z,98.30
2022-07-29T05:23:51.291Z,97.60
2022-07-29T05:26:19.043Z,98.90
2022-07-29T05:28:46.759Z,98.30
2022-07-29T05:31:15.531Z,98.90
2022-07-29T05:33:43.886Z,98.00
2022-07-29T05:36:12.956Z,98.70
2022-07-29T05:38:40.688Z,98.40
2022-07-29T05:41:08.543Z,98.20
2022-07-29T05:43:36.258Z,98.90
2022-07-29T05:46:04.168Z,98.60
2022-07-29T05:48:32.119Z,99.00
2022-07-29T05:50:59.909Z,99.40
2022-07-29T05:53:29.065Z,99.90
2022-07-29T05:55:56.826Z,99.00
2022-07-29T05:58:24.839Z,99.70
2022-07-29T06:00:52.582Z,98.80
2022-07-29T06:03:20.740Z,98.90
2022-07-29T06:05:48.475Z,99.10
2022-07-29T06:08:16.187Z,99.90
2022-07-29T06:10:46.438Z,99.90
2022-07-29T06:13:16.794Z,99.90
2022-07-29T06:15:44.940Z,99.90
2022-07-29T06:18:14.397Z,99.90
2022-07-29T06:20:42.470Z,99.80
2022-07-29T06:23:10.930Z,99.90
2022-07-29T06:25:38.853Z,99.90
2022-07-29T06:28:08.017Z,99.90
2022-07-29T06:30:35.809Z,99.90
2022-07-29T06:33:04.027Z,99.90
2022-07-29T06:35:38.483Z,99.90
2022-07-29T06:38:09.588Z,99.90
2022-07-29T06:41:03.323Z,99.90
2022-07-29T06:43:36.635Z,99.90
2022-07-29T06:46:20.809Z,99.50
2022-07-29T06:48:49.576Z,99.00
2022-07-29T06:51:22.265Z,98.80
2022-07-29T06:53:59.957Z,98.20
2022-07-29T06:56:31.435Z,98.00
2022-07-29T06:59:01.517Z,98.50
2022-07-29T07:01:29.488Z,97.90
2022-07-29T07:03:57.433Z,98.70
2022-07-29T07:06:25.154Z,99.10
2022-07-29T07:08:52.893Z,99.30
2022-07-29T07:11:20.613Z,98.20
2022-07-29T07:13:48.361Z,97.70
2022-07-29T07:16:17.797Z,98.60
2022-07-29T07:18:46.232Z,98.20
2022-07-29T07:21:19.044Z,97.60
2022-07-29T07:23:47.393Z,98.60
2022-07-29T07:26:15.589Z,98.50
2022-07-29T07:28:43.320Z,98.90
2022-07-29T07:31:11.410Z,99.00
2022-07-29T07:33:40.618Z,98.70
2022-07-29T07:36:08.493Z,98.80
2022-07-29T07:38:36.487Z,98.80
2022-07-29T07:41:04.762Z,98.40
2022-07-29T07:43:32.499Z,98.30
2022-07-29T07:46:00.257Z,98.10
2022-07-29T07:48:28.049Z,97.50
2022-07-29T07:50:57.139Z,97.80
2022-07-29T07:53:24.895Z,97.80
2022-07-29T07:56:09.988Z,97.80
2022-07-29T07:58:39.430Z,97.90
2022-07-29T08:01:07.267Z,97.40
2022-07-29T08:03:35.195Z,97.70
2022-07-29T08:06:04.950Z,97.60
2022-07-29T08:08:32.782Z,96.80
2022-07-29T08:11:08.328Z,97.30
2022-07-29T08:13:37.802Z,97.10
2022-07-29T08:16:13.463Z,97.10
2022-07-29T08:18:42.893Z,97.10
2022-07-29T08:21:14.835Z,97.00
2022-07-29T08:23:52.770Z,96.50
2022-07-29T08:26:25.728Z,96.90
2022-07-29T08:28:53.497Z,96.50
2022-07-29T08:31:21.342Z,96.30
2022-07-29T08:33:49.111Z,95.90
2022-07-29T08:36:18.848Z,95.80
2022-07-29T08:38:49.356Z,95.80
2022-07-29T08:41:17.735Z,96.20
2022-07-29T08:43:45.711Z,95.80
2022-07-29T08:46:13.484Z,95.50
2022-07-29T08:48:42.797Z,95.20
2022-07-29T08:51:14.743Z,95.00
2022-07-29T08:53:44.565Z,95.20
2022-07-29T08:56:15.063Z,95.20
2022-07-29T08:58:43.556Z,94.90
2022-07-29T09:01:19.523Z,94.70
2022-07-29T09:03:48.464Z,93.90
2022-07-29T09:06:18.938Z,94.40
2022-07-29T09:08:48.244Z,94.00
2022-07-29T09:11:16.415Z,94.10
2022-07-29T09:13:44.353Z,93.70
2022-07-29T09:16:12.164Z,93.60
2022-07-29T09:18:41.524Z,93.70
2022-07-29T09:21:28.951Z,93.40
2022-07-29T09:24:07.614Z,92.80
2022-07-29T09:26:37.459Z,92.70
2022-07-29T09:29:12.879Z,92.80
2022-07-29T09:31:42.338Z,93.10
2022-07-29T09:34:10.656Z,92.60
2022-07-29T09:36:42.947Z,92.50
2022-07-29T09:39:12.438Z,92.30
2022-07-29T09:41:48.752Z,92.40
2022-07-29T09:44:17.116Z,92.30
2022-07-29T09:46:56.585Z,91.50
2022-07-29T09:49:24.705Z,92.10
2022-07-29T09:52:02.559Z,91.80
2022-07-29T09:54:37.496Z,91.60
2022-07-29T09:57:06.722Z,91.00
2022-07-29T09:59:34.825Z,91.20
2022-07-29T10:02:03.941Z,90.90
2022-07-29T10:04:41.982Z,91.40
2022-07-29T10:07:10.299Z,90.80
2022-07-29T10:09:39.494Z,90.30
2022-07-29T10:12:11.831Z,89.90
2022-07-29T10:14:40.575Z,90.30
2022-07-29T10:17:10.206Z,89.50
2022-07-29T10:19:39.185Z,89.60
2022-07-29T10:22:08.626Z,90.50
2022-07-29T10:24:38.235Z,88.00
2022-07-29T10:27:08.807Z,88.40
2022-07-29T10:29:37.304Z,89.40
2022-07-29T10:32:32.148Z,88.90
2022-07-29T10:35:17.165Z,88.30
2022-07-29T10:41:32.334Z,87.40
2022-07-29T10:44:19.541Z,87.80
2022-07-29T10:47:24.901Z,87.40
2022-07-29T10:50:01.528Z,87.30
2022-07-29T10:52:57.872Z,86.60
2022-07-29T10:55:37.642Z,85.80
2022-07-29T10:58:19.003Z,86.40
2022-07-29T11:00:49.866Z,86.00
2022-07-29T11:03:49.211Z,84.80
2022-07-29T11:09:34.990Z,86.20
2022-07-29T11:12:07.709Z,83.00
2022-07-29T11:15:00.070Z,83.80
2022-07-29T11:20:34.603Z,82.70
2022-07-29T11:23:21.816Z,83.40
2022-07-29T11:29:23.158Z,82.00
2022-07-29T11:31:55.317Z,83.40
2022-07-29T11:34:29.628Z,81.40
2022-07-29T11:37:27.895Z,81.30
2022-07-29T11:40:18.384Z,80.30
2022-07-29T11:42:52.145Z,79.60
2022-07-29T11:45:42.174Z,80.00
2022-07-29T11:48:29.894Z,80.20
2022-07-29T11:51:02.982Z,80.50
2022-07-29T11:53:32.692Z,81.40
2022-07-29T11:56:04.988Z,80.40
2022-07-29T11:58:34.006Z,79.70
2022-07-29T12:01:09.255Z,79.70
2022-07-29T12:03:38.383Z,79.80
2022-07-29T12:06:18.004Z,78.30
2022-07-29T12:07:01.385Z,82.80
2022-07-29T12:08:47.379Z,79.10
2022-07-29T12:11:21.172Z,79.30
2022-07-29T12:13:49.908Z,78.40
2022-07-29T12:16:26.114Z,79.70
2022-07-29T12:18:59.380Z,81.60
2022-07-29T12:21:31.233Z,79.50
2022-07-29T12:24:08.670Z,79.20
2022-07-29T12:26:38.285Z,78.50
2022-07-29T12:29:11.621Z,78.30
2022-07-29T12:31:45.454Z,79.50
2022-07-29T12:34:15.374Z,78.90
2022-07-29T12:36:51.962Z,81.10
2022-07-29T12:39:21.012Z,79.30
2022-07-29T12:41:49.554Z,80.80
2022-07-29T12:44:18.049Z,80.40
2022-07-29T12:46:47.876Z,82.00
2022-07-29T12:49:24.390Z,81.90
2022-07-29T12:51:54.879Z,81.40
2022-07-29T12:54:24.361Z,81.00
2022-07-29T12:57:01.658Z,81.40
2022-07-29T12:59:30.278Z,80.40
2022-07-29T13:02:01.023Z,81.70
2022-07-29T13:04:30.924Z,80.50
2022-07-29T13:07:07.131Z,80.70
2022-07-29T13:09:44.367Z,80.40
2022-07-29T13:12:14.631Z,80.90
2022-07-29T13:14:44.209Z,81.60
2022-07-29T13:17:13.399Z,80.40
2022-07-29T13:19:43.359Z,82.40
2022-07-29T13:22:14.087Z,81.70
2022-07-29T13:24:52.598Z,82.00
2022-07-29T13:27:21.409Z,81.00
2022-07-29T13:29:52.035Z,80.50
2022-07-29T13:32:19.860Z,80.70
2022-07-29T13:35:01.096Z,80.40
2022-07-29T13:37:35.921Z,81.40
2022-07-29T13:40:05.046Z,82.60
2022-07-29T13:42:34.218Z,83.00
2022-07-29T13:45:02.505Z,82.10
2022-07-29T13:47:32.606Z,82.60
2022-07-29T13:50:01.222Z,82.20
2022-07-29T13:52:29.310Z,81.70
2022-07-29T13:54:58.653Z,81.40
2022-07-29T13:57:26.530Z,81.80
2022-07-29T13:59:54.690Z,82.10
2022-07-29T14:02:25.458Z,81.80
2022-07-29T14:04:54.465Z,81.50
2022-07-29T14:07:22.503Z,82.40
2022-07-29T14:09:51.038Z,82.20
2022-07-29T14:12:20.466Z,81.40
2022-07-29T14:14:48.327Z,81.70
2022-07-29T14:17:16.242Z,81.90
2022-07-29T14:19:44.169Z,81.30
2022-07-29T14:22:11.904Z,81.40
2022-07-29T14:24:40.023Z,81.30
2022-07-29T14:27:09.007Z,80.80
2022-07-29T14:29:38.876Z,82.10
2022-07-29T14:32:09.952Z,81.10
2022-07-29T14:34:38.978Z,80.80
2022-07-29T14:37:07.553Z,81.20
2022-07-29T14:39:42.344Z,81.00
2022-07-29T14:42:12.546Z,80.90
2022-07-29T14:44:42.898Z,81.20
2022-07-29T14:47:12.333Z,80.70
2022-07-29T14:49:40.042Z,80.80
2022-07-29T14:52:07.833Z,80.40
2022-07-29T14:54:35.577Z,81.40
2022-07-29T14:57:03.317Z,80.40
2022-07-29T14:59:31.027Z,81.10
2022-07-29T15:02:00.453Z,81.20
2022-07-29T15:04:28.578Z,79.70
2022-07-29T15:06:56.447Z,81.00
2022-07-29T15:09:24.469Z,80.70
2022-07-29T15:11:52.229Z,80.40
2022-07-29T15:14:19.954Z,79.70
2022-07-29T15:16:48.296Z,80.10
2022-07-29T15:19:17.502Z,79.70
2022-07-29T15:21:48.797Z,80.50
2022-07-29T15:24:17.744Z,80.00
2022-07-29T15:26:45.855Z,80.10
2022-07-29T15:29:14.270Z,80.30
2022-07-29T15:31:42.082Z,80.40
2022-07-29T15:34:09.955Z,81.20
2022-07-29T15:36:54.578Z,81.00
2022-07-29T15:39:23.244Z,81.00
2022-07-29T15:41:52.042Z,81.30
2022-07-29T15:44:20.937Z,80.00
2022-07-29T15:47:04.452Z,80.50
2022-07-29T15:49:48.757Z,80.40
2022-07-29T15:52:25.659Z,80.20
2022-07-29T15:54:54.890Z,80.40
2022-07-29T15:57:22.852Z,79.50
2022-07-29T15:59:50.690Z,80.50
2022-07-29T16:02:18.615Z,79.90
2022-07-29T16:04:46.399Z,79.20
2022-07-29T16:07:14.721Z,79.70
2022-07-29T16:09:46.233Z,80.10
2022-07-29T16:12:18.738Z,81.10
2022-07-29T16:14:49.321Z,79.50
2022-07-29T16:17:17.357Z,79.40
2022-07-29T16:19:45.871Z,79.90
2022-07-29T16:22:14.883Z,79.40
2022-07-29T16:24:44.022Z,79.30
2022-07-29T16:27:11.840Z,80.00
2022-07-29T16:29:39.619Z,79.00
2022-07-29T16:32:08.034Z,79.40
2022-07-29T16:34:35.872Z,80.00
2022-07-29T16:37:03.975Z,79.10
2022-07-29T16:39:31.979Z,80.20
2022-07-29T16:42:03.982Z,78.90
2022-07-29T16:44:33.222Z,79.00
2022-07-29T16:47:02.566Z,79.30
2022-07-29T16:49:31.664Z,79.40
2022-07-29T16:51:59.391Z,80.30
2022-07-29T16:54:27.435Z,79.30
2022-07-29T16:56:55.662Z,79.80
2022-07-29T16:59:25.082Z,80.30
2022-07-29T17:01:52.969Z,79.70
2022-07-29T17:04:20.765Z,79.70
2022-07-29T17:06:50.744Z,79.60
2022-07-29T17:09:18.533Z,80.00
2022-07-29T17:11:54.078Z,79.90
2022-07-29T17:14:26.131Z,79.50
2022-07-29T17:17:01.226Z,79.70
2022-07-29T17:19:30.373Z,79.50
2022-07-29T17:22:06.412Z,79.50
2022-07-29T17:24:38.389Z,79.70
2022-07-29T17:27:06.888Z,79.80
2022-07-29T17:29:35.913Z,80.20
2022-07-29T17:32:07.833Z,80.10
2022-07-29T17:34:36.151Z,80.00
2022-07-29T17:37:04.122Z,80.10
2022-07-29T17:39:32.085Z,80.00
2022-07-29T17:42:00.082Z,79.70
2022-07-29T17:44:27.817Z,79.80
2022-07-29T17:46:55.828Z,79.90
2022-07-29T17:49:25.172Z,80.00
2022-07-29T17:51:55.459Z,79.90
2022-07-29T17:54:28.480Z,80.10
2022-07-29T17:56:56.659Z,80.00
2022-07-29T17:59:24.821Z,80.20
2022-07-29T18:01:53.190Z,80.20
2022-07-29T18:04:23.291Z,80.10
2022-07-29T18:06:52.449Z,80.00
2022-07-29T18:09:20.211Z,80.40
2022-07-29T18:11:48.829Z,80.60
2022-07-29T18:14:16.954Z,80.50
2022-07-29T18:16:45.009Z,80.30
2022-07-29T18:19:12.969Z,80.80
2022-07-29T18:21:45.826Z,80.90
2022-07-29T18:24:24.534Z,80.50
2022-07-29T18:26:52.263Z,80.30
2022-07-29T18:29:20.014Z,81.20
2022-07-29T18:31:47.854Z,80.70
2022-07-29T18:34:17.028Z,80.80
2022-07-29T18:36:45.692Z,81.00
2022-07-29T18:39:20.263Z,80.80
2022-07-29T18:41:51.544Z,81.00
2022-07-29T18:44:22.101Z,81.10
2022-07-29T18:46:51.040Z,81.20
2022-07-29T18:49:19.054Z,81.40
2022-07-29T18:51:46.906Z,81.60
2022-07-29T18:54:14.875Z,81.80
2022-07-29T18:56:42.657Z,81.80
2022-07-29T18:59:12.175Z,81.80
2022-07-29T19:01:39.967Z,82.00
2022-07-29T19:04:08.186Z,82.30
2022-07-29T19:06:36.068Z,82.50
2022-07-29T19:09:05.675Z,82.70
2022-07-29T19:11:33.803Z,83.20
2022-07-29T19:14:01.818Z,83.40
2022-07-29T19:16:31.021Z,83.60
2022-07-29T19:19:00.863Z,83.70
2022-07-29T19:21:29.027Z,84.00
2022-07-29T19:24:00.175Z,84.00
2022-07-29T19:26:36.447Z,84.00
2022-07-29T19:29:05.135Z,84.00
2022-07-29T19:31:34.531Z,84.00
2022-07-29T19:34:02.366Z,84.40
2022-07-29T19:36:31.338Z,84.60
2022-07-29T19:39:00.127Z,84.30
2022-07-29T19:41:28.320Z,84.70
2022-07-29T19:43:56.142Z,84.80
2022-07-29T19:46:25.389Z,84.90
2022-07-29T19:48:54.530Z,85.20
2022-07-29T19:51:26.472Z,85.10
2022-07-29T19:53:54.426Z,85.10
2022-07-29T19:56:22.152Z,85.30
2022-07-29T19:58:52.029Z,85.00
2022-07-29T20:01:20.813Z,85.40
2022-07-29T20:03:48.895Z,85.80
2022-07-29T20:06:18.052Z,85.80
2022-07-29T20:08:46.193Z,85.60
2022-07-29T20:11:14.200Z,86.30
2022-07-29T20:13:41.971Z,86.20
2022-07-29T20:16:09.838Z,86.50
2022-07-29T20:18:37.695Z,86.00
2022-07-29T20:21:07.478Z,86.40
2022-07-29T20:23:37.384Z,86.30
2022-07-29T20:26:09.347Z,86.50
2022-07-29T20:28:40.117Z,87.10
2022-07-29T20:31:10.685Z,86.90
2022-07-29T20:33:38.496Z,87.10
2022-07-29T20:36:09.809Z,86.90
2022-07-29T20:38:38.899Z,87.50
2022-07-29T20:41:06.661Z,87.10
2022-07-29T20:43:38.878Z,87.10
2022-07-29T20:46:07.269Z,87.90
2022-07-29T20:48:35.443Z,87.70
2022-07-29T20:51:03.946Z,87.80
2022-07-29T20:53:32.872Z,87.90
2022-07-29T20:56:02.668Z,87.80
2022-07-29T20:58:32.437Z,87.90
2022-07-29T21:01:01.092Z,88.20
2022-07-29T21:03:29.369Z,88.50
2022-07-29T21:05:57.356Z,88.20
2022-07-29T21:08:25.419Z,88.40
2022-07-29T21:10:53.953Z,88.70
2022-07-29T21:13:25.423Z,88.40
2022-07-29T21:15:57.729Z,88.50
2022-07-29T21:18:30.573Z,88.80
2022-07-29T21:21:01.291Z,89.20
2022-07-29T21:23:30.034Z,89.50
2022-07-29T21:25:58.688Z,89.80
2022-07-29T21:28:26.900Z,90.20
2022-07-29T21:30:54.840Z,89.60
2022-07-29T21:33:22.800Z,90.00
2022-07-29T21:38:39.214Z,90.00
2022-07-29T21:41:12.446Z,90.00
2022-07-29T21:43:44.292Z,89.90
2022-07-29T21:46:12.732Z,90.20
2022-07-29T21:48:44.649Z,90.10
2022-07-29T21:51:15.279Z,90.10
2022-07-29T21:53:43.686Z,89.80
2022-07-29T21:56:14.856Z,90.10
2022-07-29T21:58:50.033Z,90.00
2022-07-29T22:01:18.552Z,90.20
2022-07-29T22:03:46.946Z,90.30
2022-07-29T22:06:17.965Z,90.50
2022-07-29T22:08:48.252Z,90.10
2022-07-29T22:11:17.843Z,90.20
2022-07-29T22:13:50.358Z,90.40
2022-07-29T22:16:19.269Z,90.50
2022-07-29T22:18:48.571Z,90.50
2022-07-29T22:21:17.473Z,90.50
2022-07-29T22:23:46.684Z,90.30
2022-07-29T22:26:16.620Z,90.40
2022-07-29T22:28:45.264Z,90.50
2022-07-29T22:31:17.504Z,90.60
2022-07-29T22:33:46.163Z,90.60
2022-07-29T22:36:14.257Z,90.80
2022-07-29T22:38:42.746Z,90.50
2022-07-29T22:41:11.405Z,90.60
2022-07-29T22:43:44.048Z,90.70
2022-07-29T22:46:14.582Z,90.40
2022-07-29T22:48:43.171Z,90.70
2022-07-29T22:51:11.700Z,90.70
2022-07-29T22:53:41.304Z,90.80
2022-07-29T22:56:09.689Z,90.80
2022-07-29T22:58:38.200Z,90.70
2022-07-29T23:01:06.792Z,90.80
2022-07-29T23:03:36.740Z,90.80
2022-07-29T23:06:05.254Z,90.90
2022-07-29T23:08:34.296Z,90.90
2022-07-29T23:11:02.905Z,90.80
2022-07-29T23:13:33.062Z,90.70
2022-07-29T23:16:03.186Z,90.80
2022-07-29T23:18:31.494Z,90.90
2022-07-29T23:21:01.747Z,91.00
2022-07-29T23:23:33.912Z,90.90
2022-07-29T23:26:02.321Z,90.70
2022-07-29T23:28:33.339Z,90.30
2022-07-29T23:31:02.147Z,90.10
2022-07-29T23:33:30.171Z,90.70
2022-07-29T23:35:58.743Z,90.70
2022-07-29T23:38:29.051Z,90.50
2022-07-29T23:40:59.115Z,90.90
2022-07-29T23:43:27.817Z,91.00
2022-07-29T23:45:58.133Z,91.10
2022-07-29T23:48:27.091Z,90.90
2022-07-29T23:50:54.900Z,90.90
2022-07-29T23:53:22.661Z,90.90
2022-07-29T23:55:51.702Z,91.70
2022-07-29T23:58:19.495Z,92.10
